createdAt,value
2022-07-25T00:00:10.676Z,50.902428
2022-07-25T00:01:10.670Z,50.902443
2022-07-25T00:02:10.741Z,50.902443
2022-07-25T00:03:11.001Z,50.902447
2022-07-25T00:04:11.269Z,50.902424
2022-07-25T00:05:10.642Z,50.902431
2022-07-25T00:06:13.348Z,50.902439
2022-07-25T00:07:11.624Z,50.902428
2022-07-25T00:08:10.618Z,50.902420
2022-07-25T00:09:10.635Z,50.902416
2022-07-25T00:10:10.604Z,50.902424
2022-07-25T00:11:10.589Z,50.902416
2022-07-25T00:12:11.293Z,50.902435
2022-07-25T00:13:10.573Z,50.902420
2022-07-25T00:14:10.814Z,50.902435
2022-07-25T00:15:10.568Z,50.902443
2022-07-25T00:16:10.617Z,50.902424
2022-07-25T00:17:10.545Z,50.902451
2022-07-25T00:18:10.536Z,50.902443
2022-07-25T00:19:10.564Z,50.902416
2022-07-25T00:20:10.521Z,50.902428
2022-07-25T00:21:10.519Z,50.902412
2022-07-25T00:22:10.504Z,50.902409
2022-07-25T00:23:10.501Z,50.902409
2022-07-25T00:24:10.769Z,50.902435
2022-07-25T00:25:10.483Z,50.902435
2022-07-25T00:26:10.482Z,50.902409
2022-07-25T00:27:10.467Z,50.902439
2022-07-25T00:28:10.458Z,50.902447
2022-07-25T00:29:10.480Z,50.902470
2022-07-25T00:30:10.442Z,50.902466
2022-07-25T00:31:10.527Z,50.902439
2022-07-25T00:32:10.423Z,50.902470
2022-07-25T00:33:10.416Z,50.902439
2022-07-25T00:34:10.900Z,50.902447
2022-07-25T00:35:10.399Z,50.902428
2022-07-25T00:36:10.413Z,50.902428
2022-07-25T00:37:10.393Z,50.902416
2022-07-25T00:38:10.376Z,50.902439
2022-07-25T00:39:10.390Z,50.902431
2022-07-25T00:40:10.358Z,50.902424
2022-07-25T00:41:10.358Z,50.902424
2022-07-25T00:42:10.343Z,50.902439
2022-07-25T00:43:10.334Z,50.902451
2022-07-25T00:44:10.381Z,50.902462
2022-07-25T00:45:10.321Z,50.902451
2022-07-25T00:46:10.341Z,50.902401
2022-07-25T00:47:10.314Z,50.902401
2022-07-25T00:48:10.297Z,50.902416
2022-07-25T00:49:11.401Z,50.902393
2022-07-25T00:50:10.286Z,50.902401
2022-07-25T00:51:10.271Z,50.902439
2022-07-25T00:52:11.268Z,50.902435
2022-07-25T00:53:10.264Z,50.902405
2022-07-25T00:54:10.277Z,50.902390
2022-07-25T00:55:10.248Z,50.902390
2022-07-25T00:56:10.240Z,50.902412
2022-07-25T00:57:10.231Z,50.902412
2022-07-25T00:58:10.231Z,50.902397
2022-07-25T00:59:10.245Z,50.902428
2022-07-25T01:00:10.211Z,50.902416
2022-07-25T01:01:10.281Z,50.902390
2022-07-25T01:02:10.225Z,50.902412
2022-07-25T01:03:10.241Z,50.902431
2022-07-25T01:04:10.222Z,50.902397
2022-07-25T01:05:10.416Z,50.902397
2022-07-25T01:06:10.158Z,50.902386
2022-07-25T01:07:11.160Z,50.902393
2022-07-25T01:08:10.156Z,50.902378
2022-07-25T01:09:10.178Z,50.902393
2022-07-25T01:10:11.134Z,50.902397
2022-07-25T01:11:10.136Z,50.902416
2022-07-25T01:12:10.123Z,50.902416
2022-07-25T01:13:10.114Z,50.902390
2022-07-25T01:14:42.044Z,50.902401
2022-07-25T01:15:10.096Z,50.902443
2022-07-25T01:16:10.137Z,50.902409
2022-07-25T01:17:10.081Z,50.902378
2022-07-25T01:18:10.077Z,50.902401
2022-07-25T01:19:10.206Z,50.902386
2022-07-25T01:20:10.061Z,50.902439
2022-07-25T01:21:10.062Z,50.902424
2022-07-25T01:22:10.046Z,50.902397
2022-07-25T01:23:10.036Z,50.902363
2022-07-25T01:24:10.049Z,50.902374
2022-07-25T01:25:10.020Z,50.902393
2022-07-25T01:26:10.016Z,50.902386
2022-07-25T01:27:10.025Z,50.902386
2022-07-25T01:28:10.998Z,50.902374
2022-07-25T01:29:10.023Z,50.902348
2022-07-25T01:30:09.982Z,50.902359
2022-07-25T01:31:10.026Z,50.902355
2022-07-25T01:32:09.965Z,50.902359
2022-07-25T01:33:09.963Z,50.902367
2022-07-25T01:34:10.191Z,50.902378
2022-07-25T01:35:09.942Z,50.902370
2022-07-25T01:36:09.938Z,50.902393
2022-07-25T01:37:09.925Z,50.902382
2022-07-25T01:38:09.923Z,50.902382
2022-07-25T01:39:09.941Z,50.902367
2022-07-25T01:40:09.909Z,50.902374
2022-07-25T01:41:09.895Z,50.902374
2022-07-25T01:42:09.885Z,50.902374
2022-07-25T01:43:09.882Z,50.902409
2022-07-25T01:44:10.282Z,50.902367
2022-07-25T01:45:09.859Z,50.902386
2022-07-25T01:46:09.892Z,50.902386
2022-07-25T01:47:09.855Z,50.902374
2022-07-25T01:48:09.847Z,50.902386
2022-07-25T01:49:09.906Z,50.902378
2022-07-25T01:50:10.826Z,50.902401
2022-07-25T01:51:09.825Z,50.902397
2022-07-25T01:52:09.808Z,50.902374
2022-07-25T01:53:09.804Z,50.902401
2022-07-25T01:54:10.459Z,50.902390
2022-07-25T01:55:09.794Z,50.902374
2022-07-25T01:56:10.164Z,50.902393
2022-07-25T01:57:09.776Z,50.902390
2022-07-25T01:58:09.770Z,50.902409
2022-07-25T01:59:09.787Z,50.902378
2022-07-25T02:00:09.754Z,50.902416
2022-07-25T02:01:09.812Z,50.902409
2022-07-25T02:02:09.734Z,50.902420
2022-07-25T02:03:09.727Z,50.902401
2022-07-25T02:04:10.302Z,50.902393
2022-07-25T02:05:09.750Z,50.902367
2022-07-25T02:06:09.711Z,50.902351
2022-07-25T02:07:09.697Z,50.902405
2022-07-25T02:08:09.944Z,50.902386
2022-07-25T02:09:09.708Z,50.902397
2022-07-25T02:10:09.705Z,50.902435
2022-07-25T02:11:09.668Z,50.902409
2022-07-25T02:12:09.662Z,50.902420
2022-07-25T02:13:09.656Z,50.902390
2022-07-25T02:14:09.878Z,50.902412
2022-07-25T02:15:09.666Z,50.902386
2022-07-25T02:16:09.633Z,50.902393
2022-07-25T02:17:09.672Z,50.902397
2022-07-25T02:18:09.632Z,50.902386
2022-07-25T02:19:09.613Z,50.902401
2022-07-25T02:20:09.628Z,50.902363
2022-07-25T02:21:13.936Z,50.902313
2022-07-25T02:22:10.592Z,50.902355
2022-07-25T02:23:09.583Z,50.902351
2022-07-25T02:24:10.075Z,50.902332
2022-07-25T02:25:09.593Z,50.902325
2022-07-25T02:26:09.561Z,50.902370
2022-07-25T02:27:09.559Z,50.902340
2022-07-25T02:28:10.462Z,50.902313
2022-07-25T02:29:09.541Z,50.902374
2022-07-25T02:30:09.560Z,50.902355
2022-07-25T02:31:09.577Z,50.902359
2022-07-25T02:32:09.519Z,50.902367
2022-07-25T02:33:09.521Z,50.902363
2022-07-25T02:34:09.775Z,50.902332
2022-07-25T02:35:09.944Z,50.902340
2022-07-25T02:36:09.490Z,50.902359
2022-07-25T02:37:09.480Z,50.902378
2022-07-25T02:38:09.475Z,50.902348
2022-07-25T02:39:09.464Z,50.902363
2022-07-25T02:40:09.485Z,50.902390
2022-07-25T02:41:09.456Z,50.902378
2022-07-25T02:42:09.440Z,50.902382
2022-07-25T02:43:09.437Z,50.902393
2022-07-25T02:44:09.782Z,50.902370
2022-07-25T02:45:09.466Z,50.902367
2022-07-25T02:46:09.487Z,50.902409
2022-07-25T02:47:09.404Z,50.902401
2022-07-25T02:48:09.401Z,50.902386
2022-07-25T02:49:09.446Z,50.902397
2022-07-25T02:50:09.421Z,50.902424
2022-07-25T02:51:10.375Z,50.902355
2022-07-25T02:52:09.381Z,50.902405
2022-07-25T02:53:09.362Z,50.902409
2022-07-25T02:54:09.537Z,50.902409
2022-07-25T02:55:09.982Z,50.902386
2022-07-25T02:56:10.359Z,50.902405
2022-07-25T02:57:09.333Z,50.902405
2022-07-25T02:58:09.328Z,50.902370
2022-07-25T02:59:09.319Z,50.902416
2022-07-25T03:00:09.342Z,50.902378
2022-07-25T03:01:09.361Z,50.902390
2022-07-25T03:02:09.303Z,50.902378
2022-07-25T03:03:09.285Z,50.902378
2022-07-25T03:04:09.966Z,50.902386
2022-07-25T03:05:09.321Z,50.902386
2022-07-25T03:06:09.267Z,50.902374
2022-07-25T03:07:09.277Z,50.902351
2022-07-25T03:08:09.254Z,50.902382
2022-07-25T03:09:09.232Z,50.902378
2022-07-25T03:10:11.556Z,50.902370
2022-07-25T03:11:09.232Z,50.902386
2022-07-25T03:12:09.228Z,50.902367
2022-07-25T03:13:09.230Z,50.902363
2022-07-25T03:14:09.740Z,50.902370
2022-07-25T03:15:09.233Z,50.902374
2022-07-25T03:16:09.213Z,50.902416
2022-07-25T03:17:09.237Z,50.902428
2022-07-25T03:18:09.175Z,50.902390
2022-07-25T03:19:09.173Z,50.902401
2022-07-25T03:20:09.191Z,50.902382
2022-07-25T03:21:09.150Z,50.902370
2022-07-25T03:22:09.144Z,50.902397
2022-07-25T03:23:09.136Z,50.902382
2022-07-25T03:24:09.452Z,50.902351
2022-07-25T03:25:15.761Z,50.902374
2022-07-25T03:26:10.120Z,50.902363
2022-07-25T03:27:09.103Z,50.902390
2022-07-25T03:28:09.095Z,50.902397
2022-07-25T03:29:09.086Z,50.902390
2022-07-25T03:30:09.105Z,50.902378
2022-07-25T03:31:09.077Z,50.902367
2022-07-25T03:32:09.141Z,50.902374
2022-07-25T03:33:09.061Z,50.902351
2022-07-25T03:34:09.260Z,50.902344
2022-07-25T03:35:09.069Z,50.902321
2022-07-25T03:36:09.032Z,50.902355
2022-07-25T03:37:09.023Z,50.902386
2022-07-25T03:38:09.018Z,50.902393
2022-07-25T03:39:09.013Z,50.902359
2022-07-25T03:40:09.019Z,50.902370
2022-07-25T03:41:10.010Z,50.902325
2022-07-25T03:42:08.986Z,50.902363
2022-07-25T03:43:08.981Z,50.902390
2022-07-25T03:44:09.729Z,50.902386
2022-07-25T03:45:08.985Z,50.902359
2022-07-25T03:46:09.020Z,50.902344
2022-07-25T03:47:08.953Z,50.902351
2022-07-25T03:48:09.957Z,50.902332
2022-07-25T03:49:08.988Z,50.902363
2022-07-25T03:50:08.951Z,50.902321
2022-07-25T03:51:08.920Z,50.902279
2022-07-25T03:52:08.917Z,50.902378
2022-07-25T03:53:09.197Z,50.902451
2022-07-25T03:54:09.336Z,50.902527
2022-07-25T03:55:08.914Z,50.902580
2022-07-25T03:56:08.886Z,50.902576
2022-07-25T03:57:08.885Z,50.902504
2022-07-25T03:58:08.872Z,50.902290
2022-07-25T03:59:08.866Z,50.902370
2022-07-25T04:00:08.885Z,50.902523
2022-07-25T04:01:08.913Z,50.902649
2022-07-25T04:02:08.884Z,50.902546
2022-07-25T04:03:08.836Z,50.902493
2022-07-25T04:04:09.158Z,50.902473
2022-07-25T04:05:08.847Z,50.902317
2022-07-25T04:06:08.817Z,50.902206
2022-07-25T04:07:08.807Z,50.902386
2022-07-25T04:08:08.800Z,50.902393
2022-07-25T04:09:08.792Z,50.902569
2022-07-25T04:10:08.808Z,50.902630
2022-07-25T04:11:08.769Z,50.902546
2022-07-25T04:12:08.770Z,50.902458
2022-07-25T04:13:08.752Z,50.902374
2022-07-25T04:14:09.064Z,50.902466
2022-07-25T04:15:08.770Z,50.902397
2022-07-25T04:16:12.981Z,50.902443
2022-07-25T04:17:10.789Z,50.902393
2022-07-25T04:18:08.718Z,50.902431
2022-07-25T04:19:08.753Z,50.902473
2022-07-25T04:20:08.729Z,50.902462
2022-07-25T04:21:08.693Z,50.902363
2022-07-25T04:22:08.683Z,50.902363
2022-07-25T04:23:08.679Z,50.902390
2022-07-25T04:24:09.160Z,50.902420
2022-07-25T04:25:08.690Z,50.902431
2022-07-25T04:26:08.658Z,50.902428
2022-07-25T04:27:08.651Z,50.902424
2022-07-25T04:28:08.636Z,50.902382
2022-07-25T04:29:08.632Z,50.902336
2022-07-25T04:30:08.650Z,50.902428
2022-07-25T04:31:08.618Z,50.902428
2022-07-25T04:32:08.656Z,50.902424
2022-07-25T04:33:08.602Z,50.902397
2022-07-25T04:34:08.979Z,50.902412
2022-07-25T04:35:08.613Z,50.902409
2022-07-25T04:36:08.575Z,50.902477
2022-07-25T04:37:08.578Z,50.902412
2022-07-25T04:38:12.052Z,50.902435
2022-07-25T04:39:09.554Z,50.902473
2022-07-25T04:40:08.571Z,50.902454
2022-07-25T04:41:08.541Z,50.902428
2022-07-25T04:42:08.540Z,50.902424
2022-07-25T04:43:08.531Z,50.902435
2022-07-25T04:44:09.246Z,50.902443
2022-07-25T04:45:08.537Z,50.902439
2022-07-25T04:46:08.587Z,50.902435
2022-07-25T04:47:08.495Z,50.902397
2022-07-25T04:48:08.487Z,50.902332
2022-07-25T04:49:08.609Z,50.902401
2022-07-25T04:50:08.509Z,50.902401
2022-07-25T04:51:08.464Z,50.902393
2022-07-25T04:52:08.462Z,50.902382
2022-07-25T04:53:08.456Z,50.902431
2022-07-25T04:54:08.850Z,50.902439
2022-07-25T04:55:08.457Z,50.902420
2022-07-25T04:56:08.429Z,50.902412
2022-07-25T04:57:08.428Z,50.902424
2022-07-25T04:58:08.418Z,50.902428
2022-07-25T04:59:08.405Z,50.902447
2022-07-25T05:00:08.424Z,50.902431
2022-07-25T05:01:08.426Z,50.902447
2022-07-25T05:02:08.430Z,50.902378
2022-07-25T05:03:08.371Z,50.902428
2022-07-25T05:04:08.630Z,50.902420
2022-07-25T05:05:08.400Z,50.902428
2022-07-25T05:06:09.340Z,50.902412
2022-07-25T05:07:09.342Z,50.902428
2022-07-25T05:08:08.334Z,50.902401
2022-07-25T05:09:08.328Z,50.902424
2022-07-25T05:10:08.322Z,50.902428
2022-07-25T05:11:08.336Z,50.902390
2022-07-25T05:12:08.301Z,50.902424
2022-07-25T05:13:08.291Z,50.902412
2022-07-25T05:14:08.626Z,50.902401
2022-07-25T05:15:08.277Z,50.902454
2022-07-25T05:16:08.329Z,50.902443
2022-07-25T05:17:08.280Z,50.902451
2022-07-25T05:18:08.254Z,50.902401
2022-07-25T05:19:08.249Z,50.902401
2022-07-25T05:20:08.238Z,50.902416
2022-07-25T05:21:08.255Z,50.902390
2022-07-25T05:22:08.226Z,50.902428
2022-07-25T05:23:08.217Z,50.902409
2022-07-25T05:24:08.578Z,50.902439
2022-07-25T05:25:08.230Z,50.902428
2022-07-25T05:26:08.221Z,50.902470
2022-07-25T05:27:08.188Z,50.902454
2022-07-25T05:28:08.178Z,50.902424
2022-07-25T05:29:09.174Z,50.902420
2022-07-25T05:30:08.170Z,50.902401
2022-07-25T05:31:08.282Z,50.902412
2022-07-25T05:32:08.166Z,50.902409
2022-07-25T05:33:08.146Z,50.902409
2022-07-25T05:34:08.425Z,50.902416
2022-07-25T05:35:08.164Z,50.902443
2022-07-25T05:36:09.149Z,50.902451
2022-07-25T05:37:08.116Z,50.902454
2022-07-25T05:38:08.110Z,50.902431
2022-07-25T05:39:08.100Z,50.902462
2022-07-25T05:40:08.095Z,50.902481
2022-07-25T05:41:08.113Z,50.902458
2022-07-25T05:42:08.085Z,50.902470
2022-07-25T05:43:08.076Z,50.902447
2022-07-25T05:44:08.326Z,50.902420
2022-07-25T05:45:08.060Z,50.902424
2022-07-25T05:46:08.083Z,50.902458
2022-07-25T05:47:08.116Z,50.902447
2022-07-25T05:48:08.038Z,50.902435
2022-07-25T05:49:08.066Z,50.902454
2022-07-25T05:50:08.022Z,50.902420
2022-07-25T05:51:08.044Z,50.902435
2022-07-25T05:52:12.509Z,50.902428
2022-07-25T05:53:10.002Z,50.902424
2022-07-25T05:54:08.324Z,50.902412
2022-07-25T05:55:07.982Z,50.902458
2022-07-25T05:56:08.006Z,50.902431
2022-07-25T05:57:07.974Z,50.902409
2022-07-25T05:58:07.965Z,50.902424
2022-07-25T05:59:07.958Z,50.902443
2022-07-25T06:00:07.955Z,50.902416
2022-07-25T06:01:07.968Z,50.902431
2022-07-25T06:02:08.049Z,50.902458
2022-07-25T06:03:08.010Z,50.902405
2022-07-25T06:04:08.293Z,50.902420
2022-07-25T06:05:07.915Z,50.902390
2022-07-25T06:06:07.927Z,50.902397
2022-07-25T06:07:07.893Z,50.902401
2022-07-25T06:08:07.885Z,50.902390
2022-07-25T06:09:08.211Z,50.902412
2022-07-25T06:10:07.873Z,50.902401
2022-07-25T06:11:08.311Z,50.902405
2022-07-25T06:12:07.855Z,50.902390
2022-07-25T06:13:07.848Z,50.902363
2022-07-25T06:14:08.134Z,50.902397
2022-07-25T06:15:07.832Z,50.902420
2022-07-25T06:16:07.905Z,50.902382
2022-07-25T06:17:07.811Z,50.902393
2022-07-25T06:18:07.814Z,50.902397
2022-07-25T06:19:07.811Z,50.902397
2022-07-25T06:20:07.800Z,50.902386
2022-07-25T06:21:07.818Z,50.902405
2022-07-25T06:22:07.775Z,50.902386
2022-07-25T06:23:07.775Z,50.902390
2022-07-25T06:24:08.121Z,50.902382
2022-07-25T06:25:07.761Z,50.902367
2022-07-25T06:26:07.778Z,50.902370
2022-07-25T06:27:07.746Z,50.902393
2022-07-25T06:28:07.743Z,50.902382
2022-07-25T06:29:07.734Z,50.902390
2022-07-25T06:30:18.769Z,50.902390
2022-07-25T06:31:09.803Z,50.902382
2022-07-25T06:32:07.714Z,50.902382
2022-07-25T06:33:07.736Z,50.902390
2022-07-25T06:34:08.001Z,50.902405
2022-07-25T06:35:07.700Z,50.902416
2022-07-25T06:36:07.717Z,50.902374
2022-07-25T06:37:07.681Z,50.902363
2022-07-25T06:38:07.669Z,50.902382
2022-07-25T06:39:07.660Z,50.902359
2022-07-25T06:40:07.679Z,50.902355
2022-07-25T06:41:07.667Z,50.902363
2022-07-25T06:42:07.643Z,50.902363
2022-07-25T06:43:07.633Z,50.902382
2022-07-25T06:44:08.279Z,50.902386
2022-07-25T06:45:07.613Z,50.902374
2022-07-25T06:46:07.747Z,50.902374
2022-07-25T06:47:07.665Z,50.902401
2022-07-25T06:48:07.590Z,50.902390
2022-07-25T06:49:07.640Z,50.902370
2022-07-25T06:50:07.597Z,50.902351
2022-07-25T06:51:07.590Z,50.902378
2022-07-25T06:52:07.552Z,50.902386
2022-07-25T06:53:07.552Z,50.902374
2022-07-25T06:54:07.920Z,50.902370
2022-07-25T06:55:07.541Z,50.902374
2022-07-25T06:56:07.545Z,50.902401
2022-07-25T06:57:07.520Z,50.902397
2022-07-25T06:58:07.514Z,50.902386
2022-07-25T06:59:07.505Z,50.902386
2022-07-25T07:00:07.500Z,50.902386
2022-07-25T07:01:07.579Z,50.902397
2022-07-25T07:02:07.484Z,50.902397
2022-07-25T07:03:07.526Z,50.902409
2022-07-25T07:04:07.808Z,50.902409
2022-07-25T07:05:07.459Z,50.902393
2022-07-25T07:06:07.474Z,50.902363
2022-07-25T07:07:07.442Z,50.902363
2022-07-25T07:08:07.432Z,50.902363
2022-07-25T07:09:07.447Z,50.902359
2022-07-25T07:10:07.436Z,50.902344
2022-07-25T07:11:07.433Z,50.902355
2022-07-25T07:12:07.403Z,50.902359
2022-07-25T07:13:07.631Z,50.902355
2022-07-25T07:14:39.899Z,50.902367
2022-07-25T07:15:07.376Z,50.902378
2022-07-25T07:16:07.441Z,50.902367
2022-07-25T07:17:07.363Z,50.902378
2022-07-25T07:18:07.368Z,50.902370
2022-07-25T07:19:07.644Z,50.902370
2022-07-25T07:20:08.344Z,50.902370
2022-07-25T07:21:07.348Z,50.902321
2022-07-25T07:22:08.327Z,50.902367
2022-07-25T07:23:07.324Z,50.902363
2022-07-25T07:24:18.500Z,50.902359
2022-07-25T07:25:08.315Z,50.902386
2022-07-25T07:26:07.472Z,50.902370
2022-07-25T07:27:07.292Z,50.902401
2022-07-25T07:28:07.281Z,50.902374
2022-07-25T07:29:07.529Z,50.902412
2022-07-25T07:30:07.270Z,50.902374
2022-07-25T07:31:16.422Z,50.902382
2022-07-25T07:32:09.290Z,50.902397
2022-07-25T07:33:07.245Z,50.902382
2022-07-25T07:34:07.228Z,50.902382
2022-07-25T07:35:07.225Z,50.902374
2022-07-25T07:36:07.219Z,50.902393
2022-07-25T07:37:07.236Z,50.902401
2022-07-25T07:38:07.219Z,50.902401
2022-07-25T07:39:07.643Z,50.902397
2022-07-25T07:40:07.184Z,50.902393
2022-07-25T07:41:07.192Z,50.902424
2022-07-25T07:42:07.199Z,50.902401
2022-07-25T07:43:07.164Z,50.902393
2022-07-25T07:44:07.156Z,50.902397
2022-07-25T07:45:07.147Z,50.902416
2022-07-25T07:46:07.183Z,50.902390
2022-07-25T07:47:07.160Z,50.902397
2022-07-25T07:48:08.126Z,50.902397
2022-07-25T07:49:08.571Z,50.902382
2022-07-25T07:50:07.109Z,50.902348
2022-07-25T07:51:07.100Z,50.902370
2022-07-25T07:52:07.123Z,50.902370
2022-07-25T07:53:07.088Z,50.902370
2022-07-25T07:54:07.074Z,50.902390
2022-07-25T07:55:07.061Z,50.902378
2022-07-25T07:56:08.065Z,50.902367
2022-07-25T07:57:07.076Z,50.902378
2022-07-25T07:58:08.050Z,50.902390
2022-07-25T07:59:07.451Z,50.902405
2022-07-25T08:00:07.038Z,50.902386
2022-07-25T08:01:07.034Z,50.902401
2022-07-25T08:02:07.102Z,50.902397
2022-07-25T08:03:07.034Z,50.902405
2022-07-25T08:04:08.036Z,50.902397
2022-07-25T08:05:07.005Z,50.902390
2022-07-25T08:06:06.992Z,50.902401
2022-07-25T08:07:07.008Z,50.902412
2022-07-25T08:08:06.975Z,50.902420
2022-07-25T08:09:07.304Z,50.902416
2022-07-25T08:10:06.964Z,50.902412
2022-07-25T08:11:06.958Z,50.902428
2022-07-25T08:12:06.982Z,50.902424
2022-07-25T08:13:06.941Z,50.902416
2022-07-25T08:14:07.379Z,50.902424
2022-07-25T08:15:06.932Z,50.902443
2022-07-25T08:16:07.032Z,50.902416
2022-07-25T08:17:06.935Z,50.902393
2022-07-25T08:18:06.912Z,50.902370
2022-07-25T08:19:07.895Z,50.902370
2022-07-25T08:20:27.894Z,50.902386
2022-07-25T08:21:08.906Z,50.902390
2022-07-25T08:22:06.931Z,50.902393
2022-07-25T08:23:06.866Z,50.902405
2022-07-25T08:24:07.371Z,50.902420
2022-07-25T08:25:06.865Z,50.902431
2022-07-25T08:26:06.848Z,50.902428
2022-07-25T08:27:06.864Z,50.902443
2022-07-25T08:28:06.831Z,50.902420
2022-07-25T08:29:18.879Z,50.902439
2022-07-25T08:30:08.814Z,50.902405
2022-07-25T08:31:06.871Z,50.902416
2022-07-25T08:32:06.830Z,50.902424
2022-07-25T08:33:06.794Z,50.902401
2022-07-25T08:34:07.218Z,50.902390
2022-07-25T08:35:11.211Z,50.902412
2022-07-25T08:36:07.768Z,50.902424
2022-07-25T08:37:06.784Z,50.902412
2022-07-25T08:38:06.755Z,50.902386
2022-07-25T08:39:06.740Z,50.902386
2022-07-25T08:40:06.736Z,50.902378
2022-07-25T08:41:06.733Z,50.902397
2022-07-25T08:42:10.915Z,50.902374
2022-07-25T08:43:07.715Z,50.902386
2022-07-25T08:44:06.987Z,50.902412
2022-07-25T08:45:06.706Z,50.902348
2022-07-25T08:46:06.747Z,50.902332
2022-07-25T08:47:06.704Z,50.902344
2022-07-25T08:48:06.689Z,50.902355
2022-07-25T08:49:06.759Z,50.902359
2022-07-25T08:50:06.670Z,50.902393
2022-07-25T08:51:06.656Z,50.902405
2022-07-25T08:52:06.678Z,50.902355
2022-07-25T08:53:31.527Z,50.902321
2022-07-25T08:54:08.955Z,50.902328
2022-07-25T08:55:06.634Z,50.902412
2022-07-25T08:56:14.791Z,50.902344
2022-07-25T08:57:08.643Z,50.902393
2022-07-25T08:58:06.614Z,50.902382
2022-07-25T08:59:06.601Z,50.902382
2022-07-25T09:00:06.593Z,50.902348
2022-07-25T09:01:06.598Z,50.902374
2022-07-25T09:02:06.648Z,50.902206
2022-07-25T09:03:06.689Z,50.902271
2022-07-25T09:04:07.006Z,50.902294
2022-07-25T09:05:06.561Z,50.902405
2022-07-25T09:06:06.548Z,50.902370
2022-07-25T09:07:08.291Z,50.902321
2022-07-25T09:08:07.526Z,50.902412
2022-07-25T09:09:06.531Z,50.902363
2022-07-25T09:10:06.516Z,50.902393
2022-07-25T09:11:06.509Z,50.902386
2022-07-25T09:12:06.562Z,50.902401
2022-07-25T09:13:06.493Z,50.902439
2022-07-25T09:14:07.238Z,50.902393
2022-07-25T09:15:06.478Z,50.902451
2022-07-25T09:16:06.533Z,50.902416
2022-07-25T09:17:06.501Z,50.902386
2022-07-25T09:18:09.991Z,50.902428
2022-07-25T09:19:06.449Z,50.902416
2022-07-25T09:20:06.447Z,50.902416
2022-07-25T09:21:06.427Z,50.902412
2022-07-25T09:22:07.507Z,50.902409
2022-07-25T09:23:06.426Z,50.902435
2022-07-25T09:24:06.853Z,50.902443
2022-07-25T09:25:06.407Z,50.902401
2022-07-25T09:26:06.403Z,50.902393
2022-07-25T09:27:06.423Z,50.902416
2022-07-25T09:28:06.393Z,50.902405
2022-07-25T09:29:06.382Z,50.902412
2022-07-25T09:30:06.376Z,50.902412
2022-07-25T09:31:06.413Z,50.902412
2022-07-25T09:32:06.391Z,50.902401
2022-07-25T09:33:06.386Z,50.902412
2022-07-25T09:34:06.560Z,50.902424
2022-07-25T09:35:06.336Z,50.902412
2022-07-25T09:36:06.326Z,50.902409
2022-07-25T09:37:06.340Z,50.902409
2022-07-25T09:38:06.307Z,50.902416
2022-07-25T09:39:06.304Z,50.902420
2022-07-25T09:40:06.300Z,50.902412
2022-07-25T09:41:06.293Z,50.902451
2022-07-25T09:42:06.317Z,50.902443
2022-07-25T09:43:06.306Z,50.902447
2022-07-25T09:44:06.554Z,50.902420
2022-07-25T09:45:06.263Z,50.902424
2022-07-25T09:46:06.299Z,50.902405
2022-07-25T09:47:06.310Z,50.902393
2022-07-25T09:48:06.244Z,50.902393
2022-07-25T09:49:06.310Z,50.902424
2022-07-25T09:50:06.222Z,50.902412
2022-07-25T09:51:06.223Z,50.902420
2022-07-25T09:52:06.217Z,50.902412
2022-07-25T09:53:06.237Z,50.902412
2022-07-25T09:54:06.571Z,50.902420
2022-07-25T09:55:06.193Z,50.902412
2022-07-25T09:56:06.208Z,50.902420
2022-07-25T09:57:06.180Z,50.902412
2022-07-25T09:58:06.206Z,50.902393
2022-07-25T09:59:06.175Z,50.902412
2022-07-25T10:00:06.151Z,50.902412
2022-07-25T10:01:06.237Z,50.902435
2022-07-25T10:02:06.145Z,50.902420
2022-07-25T10:03:06.236Z,50.902439
2022-07-25T10:04:06.415Z,50.902431
2022-07-25T10:05:06.116Z,50.902412
2022-07-25T10:06:06.123Z,50.902462
2022-07-25T10:07:06.111Z,50.902443
2022-07-25T10:08:06.123Z,50.902435
2022-07-25T10:09:06.093Z,50.902428
2022-07-25T10:10:06.084Z,50.902412
2022-07-25T10:11:06.077Z,50.902412
2022-07-25T10:12:06.072Z,50.902431
2022-07-25T10:13:10.258Z,50.902424
2022-07-25T10:14:07.375Z,50.902416
2022-07-25T10:15:06.053Z,50.902401
2022-07-25T10:16:06.043Z,50.902428
2022-07-25T10:17:06.178Z,50.902443
2022-07-25T10:18:06.059Z,50.902428
2022-07-25T10:19:06.044Z,50.902424
2022-07-25T10:20:06.017Z,50.902416
2022-07-25T10:21:22.862Z,50.902420
2022-07-25T10:22:08.008Z,50.902439
2022-07-25T10:23:06.018Z,50.902458
2022-07-25T10:24:06.409Z,50.902493
2022-07-25T10:25:06.012Z,50.902420
2022-07-25T10:26:05.977Z,50.902489
2022-07-25T10:27:05.969Z,50.902420
2022-07-25T10:28:05.985Z,50.902458
2022-07-25T10:29:05.958Z,50.902428
2022-07-25T10:30:05.971Z,50.902443
2022-07-25T10:31:06.007Z,50.902431
2022-07-25T10:32:05.936Z,50.902416
2022-07-25T10:33:05.950Z,50.902454
2022-07-25T10:34:06.283Z,50.902473
2022-07-25T10:35:05.916Z,50.902466
2022-07-25T10:36:05.934Z,50.902473
2022-07-25T10:37:05.902Z,50.902439
2022-07-25T10:38:05.914Z,50.902409
2022-07-25T10:39:05.881Z,50.902409
2022-07-25T10:40:05.881Z,50.902405
2022-07-25T10:41:05.863Z,50.902420
2022-07-25T10:42:05.858Z,50.902390
2022-07-25T10:43:05.879Z,50.902401
2022-07-25T10:44:06.159Z,50.902397
2022-07-25T10:45:05.839Z,50.902428
2022-07-25T10:46:05.898Z,50.902420
2022-07-25T10:47:05.833Z,50.902451
2022-07-25T10:48:05.858Z,50.902454
2022-07-25T10:49:06.274Z,50.902370
2022-07-25T10:50:19.051Z,50.902424
2022-07-25T10:51:07.799Z,50.902454
2022-07-25T10:52:05.794Z,50.902431
2022-07-25T10:53:05.820Z,50.902420
2022-07-25T10:54:05.778Z,50.902424
2022-07-25T10:55:05.772Z,50.902489
2022-07-25T10:56:06.639Z,50.902424
2022-07-25T10:57:06.766Z,50.902397
2022-07-25T10:58:17.556Z,50.902451
2022-07-25T10:59:08.140Z,50.902435
2022-07-25T11:00:05.736Z,50.902451
2022-07-25T11:01:05.855Z,50.902481
2022-07-25T11:02:05.810Z,50.902500
2022-07-25T11:03:05.806Z,50.902489
2022-07-25T11:04:05.735Z,50.902481
2022-07-25T11:05:05.704Z,50.902428
2022-07-25T11:06:05.694Z,50.902390
2022-07-25T11:07:05.692Z,50.902439
2022-07-25T11:08:21.062Z,50.902477
2022-07-25T11:09:08.055Z,50.902454
2022-07-25T11:10:05.672Z,50.902447
2022-07-25T11:11:05.682Z,50.902458
2022-07-25T11:12:05.657Z,50.902428
2022-07-25T11:13:05.660Z,50.902439
2022-07-25T11:14:05.667Z,50.902405
2022-07-25T11:15:05.644Z,50.902512
2022-07-25T11:16:05.633Z,50.902431
2022-07-25T11:17:05.656Z,50.902412
2022-07-25T11:18:05.611Z,50.902458
2022-07-25T11:19:05.892Z,50.902405
2022-07-25T11:20:05.607Z,50.902405
2022-07-25T11:21:06.710Z,50.902458
2022-07-25T11:22:06.598Z,50.902378
2022-07-25T11:23:05.593Z,50.902374
2022-07-25T11:24:05.605Z,50.902466